DTTX/SFA METAR and TAF weather

Enter ICAO airport designator
Station Type Date Time Source
DTTX METAR 2022/01/29 14:00 UTC NOAA

DTTX 291400Z 33014KT 9999 FEW020 SCT030 17/04 Q1027 NOSIG


Station Type Date Time Source
DTTX Decoded METAR 2022/01/29 14:00 UTC NOAA

Sfax El-Maou, Tunisia (DTTX) 34-43N 010-41E 23M
Jan 29, 2022 - 09:00 AM EST / 2022.01.29 1400 UTC
Wind: from the NNW (330 degrees) at 16 MPH (14 KT):0
Visibility: greater than 7 mile(s):0
Sky conditions: partly cloudy
Temperature: 62 F (17 C)
Dew Point: 39 F (4 C)
Relative Humidity: 41%
Pressure (altimeter): 30.33 in. Hg (1027 hPa)
ob: DTTX 291400Z 33014KT 9999 FEW020 SCT030 17/04 Q1027 NOSIG
cycle: 14

Station Type Date Time Source
DTTX TAF 2022/01/29 12:03 UTC NOAA

TAF DTTX 291100Z 2912/3012 31010KT 9999 FEW020
BECMG 2916/2918 04010KT

Example: see airport list